Urb San Salvador, Puerto Rico
Current Conditions -  °F | °C
As of 6:56 AM on Tuesday 21 Oct 2014 (Local Time) from TJSJ Reporting Station
Scattered Clouds Scattered Clouds  
Wind Chill: 80°   Ceiling: Unl
Heat Index: 85°   Visibility: 10mi
Dew Point: 74°   Wind: 0mph
Humidity: 81%   Direction: NA
Pressure: 29.95"   Gusts: NA
Location:  18.4259°N, 66.4717°W
Report Text: TJSJ 211056Z 00000KT 10SM FEW026 SCT060 27/23 A2995 RMK AO2 SLP140 TCU NW-NE VCSH NW T02670233
Loading
Personal Weather Stations






























Interactive Weather Map
Tropical Storm Tracking
New forecast layout! Learn more

10-Day Weather Forecast

Advertisements
Track Severe Weather on mobile